createdAt,value
2022-10-25T00:00:11.218Z,14.62
2022-10-25T00:01:11.242Z,14.62
2022-10-25T00:02:11.337Z,14.68
2022-10-25T00:03:11.199Z,14.69
2022-10-25T00:04:11.251Z,14.62
2022-10-25T00:05:11.161Z,14.64
2022-10-25T00:06:11.151Z,14.68
2022-10-25T00:07:11.139Z,14.73
2022-10-25T00:08:11.149Z,14.64
2022-10-25T00:09:11.129Z,14.69
2022-10-25T00:10:11.104Z,14.73
2022-10-25T00:11:11.115Z,14.73
2022-10-25T00:12:11.077Z,14.62
2022-10-25T00:13:11.072Z,14.65
2022-10-25T00:14:11.068Z,14.72
2022-10-25T00:15:11.057Z,14.62
2022-10-25T00:16:11.056Z,14.60
2022-10-25T00:17:11.040Z,14.62
2022-10-25T00:18:11.025Z,14.57
2022-10-25T00:19:11.064Z,14.58
2022-10-25T00:20:11.008Z,14.57
2022-10-25T00:21:10.995Z,14.51
2022-10-25T00:22:10.985Z,14.57
2022-10-25T00:23:10.978Z,14.43
2022-10-25T00:24:10.979Z,14.45
2022-10-25T00:25:10.985Z,14.45
2022-10-25T00:26:10.970Z,14.37
2022-10-25T00:27:10.955Z,14.54
2022-10-25T00:28:10.917Z,14.50
2022-10-25T00:29:12.042Z,14.45
2022-10-25T00:30:10.923Z,14.39
2022-10-25T00:31:10.894Z,14.39
2022-10-25T00:32:10.887Z,14.37
2022-10-25T00:33:10.878Z,14.43
2022-10-25T00:34:10.887Z,14.43
2022-10-25T00:35:10.856Z,14.46
2022-10-25T00:36:10.850Z,14.60
2022-10-25T00:37:10.826Z,14.57
2022-10-25T00:38:10.825Z,14.55
2022-10-25T00:39:10.819Z,14.57
2022-10-25T00:40:10.826Z,14.57
2022-10-25T00:41:10.803Z,14.62
2022-10-25T00:42:10.811Z,14.62
2022-10-25T00:43:10.775Z,14.61
2022-10-25T00:44:10.782Z,14.54
2022-10-25T00:45:10.749Z,14.57
2022-10-25T00:46:10.796Z,14.51
2022-10-25T00:47:10.737Z,14.54
2022-10-25T00:48:10.721Z,14.40
2022-10-25T00:49:10.729Z,14.46
2022-10-25T00:50:10.715Z,14.37
2022-10-25T00:51:10.724Z,14.42
2022-10-25T00:52:10.704Z,14.35
2022-10-25T00:53:10.676Z,14.43
2022-10-25T00:54:10.707Z,14.37
2022-10-25T00:55:10.671Z,14.36
2022-10-25T00:56:10.655Z,14.28
2022-10-25T00:57:10.644Z,14.33
2022-10-25T00:58:10.641Z,14.25
2022-10-25T00:59:10.622Z,14.21
2022-10-25T01:00:10.630Z,14.27
2022-10-25T01:01:10.693Z,14.17
2022-10-25T01:02:10.742Z,14.35
2022-10-25T01:03:10.610Z,14.24
2022-10-25T01:04:10.594Z,14.15
2022-10-25T01:05:10.572Z,14.18
2022-10-25T01:06:10.561Z,14.22
2022-10-25T01:07:10.580Z,14.25
2022-10-25T01:08:10.544Z,14.29
2022-10-25T01:09:10.551Z,14.27
2022-10-25T01:10:10.532Z,14.36
2022-10-25T01:11:10.587Z,14.09
2022-10-25T01:12:10.506Z,14.09
2022-10-25T01:13:10.483Z,14.07
2022-10-25T01:14:10.471Z,14.12
2022-10-25T01:15:10.488Z,14.10
2022-10-25T01:16:10.498Z,14.09
2022-10-25T01:17:10.449Z,14.10
2022-10-25T01:18:10.464Z,14.15
2022-10-25T01:19:10.456Z,14.04
2022-10-25T01:20:10.408Z,13.96
2022-10-25T01:21:10.410Z,14.14
2022-10-25T01:22:10.424Z,14.03
2022-10-25T01:23:10.396Z,14.10
2022-10-25T01:24:10.400Z,14.02
2022-10-25T01:25:10.368Z,13.91
2022-10-25T01:26:10.360Z,13.97
2022-10-25T01:27:10.372Z,13.89
2022-10-25T01:28:10.333Z,13.95
2022-10-25T01:29:10.347Z,13.95
2022-10-25T01:30:10.342Z,13.84
2022-10-25T01:31:10.321Z,13.84
2022-10-25T01:32:10.301Z,13.87
2022-10-25T01:33:10.300Z,13.82
2022-10-25T01:34:10.293Z,13.85
2022-10-25T01:35:10.289Z,13.87
2022-10-25T01:36:10.285Z,13.77
2022-10-25T01:37:10.255Z,13.73
2022-10-25T01:38:10.244Z,13.78
2022-10-25T01:39:10.263Z,13.88
2022-10-25T01:40:10.228Z,13.81
2022-10-25T01:41:10.214Z,13.75
2022-10-25T01:42:10.265Z,13.78
2022-10-25T01:43:10.202Z,13.87
2022-10-25T01:44:10.237Z,13.78
2022-10-25T01:45:10.182Z,13.79
2022-10-25T01:46:10.171Z,13.78
2022-10-25T01:47:10.152Z,13.88
2022-10-25T01:48:10.155Z,13.82
2022-10-25T01:49:10.153Z,13.75
2022-10-25T01:50:10.148Z,13.78
2022-10-25T01:51:10.129Z,13.84
2022-10-25T01:52:10.110Z,13.73
2022-10-25T01:53:10.108Z,13.81
2022-10-25T01:54:10.091Z,13.71
2022-10-25T01:55:10.100Z,13.77
2022-10-25T01:56:10.062Z,13.67
2022-10-25T01:57:10.060Z,13.75
2022-10-25T01:58:10.053Z,13.71
2022-10-25T01:59:10.027Z,13.71
2022-10-25T02:00:10.053Z,13.73
2022-10-25T02:01:10.163Z,13.70
2022-10-25T02:02:10.013Z,13.69
2022-10-25T02:03:10.003Z,13.69
2022-10-25T02:04:10.008Z,13.75
2022-10-25T02:05:09.984Z,13.73
2022-10-25T02:06:09.969Z,13.64
2022-10-25T02:07:09.996Z,13.59
2022-10-25T02:08:09.951Z,13.62
2022-10-25T02:09:09.955Z,13.62
2022-10-25T02:10:09.941Z,13.63
2022-10-25T02:11:09.935Z,13.66
2022-10-25T02:12:09.920Z,13.62
2022-10-25T02:13:09.921Z,13.66
2022-10-25T02:14:10.894Z,13.57
2022-10-25T02:15:09.888Z,13.59
2022-10-25T02:16:09.874Z,13.69
2022-10-25T02:17:09.863Z,13.62
2022-10-25T02:18:09.873Z,13.51
2022-10-25T02:19:09.849Z,13.70
2022-10-25T02:20:09.858Z,13.66
2022-10-25T02:21:09.828Z,13.60
2022-10-25T02:22:09.808Z,13.62
2022-10-25T02:23:09.797Z,13.62
2022-10-25T02:24:09.791Z,13.71
2022-10-25T02:25:09.798Z,13.51
2022-10-25T02:26:09.774Z,13.62
2022-10-25T02:27:09.801Z,13.75
2022-10-25T02:28:09.779Z,13.69
2022-10-25T02:29:09.748Z,13.79
2022-10-25T02:30:09.744Z,13.79
2022-10-25T02:31:09.736Z,13.82
2022-10-25T02:32:09.734Z,13.82
2022-10-25T02:33:09.705Z,13.81
2022-10-25T02:34:09.704Z,13.81
2022-10-25T02:35:09.716Z,13.88
2022-10-25T02:36:09.670Z,13.78
2022-10-25T02:37:09.672Z,13.87
2022-10-25T02:38:09.681Z,13.81
2022-10-25T02:39:09.669Z,13.87
2022-10-25T02:40:09.628Z,13.88
2022-10-25T02:44:42.034Z,13.78
2022-10-25T02:45:21.035Z,13.71
2022-10-25T02:46:22.154Z,13.81
2022-10-25T02:47:22.168Z,13.87
2022-10-25T02:48:22.148Z,13.89
2022-10-25T02:49:22.121Z,13.92
2022-10-25T02:50:22.133Z,13.97
2022-10-25T02:51:22.107Z,13.95
2022-10-25T02:52:22.085Z,13.95
2022-10-25T02:53:22.091Z,13.99
2022-10-25T02:54:22.103Z,13.99
2022-10-25T02:55:53.976Z,14.06
2022-10-25T02:56:22.072Z,14.04
2022-10-25T02:57:22.063Z,14.09
2022-10-25T02:58:22.040Z,14.06
2022-10-25T02:59:22.054Z,14.00
2022-10-25T03:00:22.035Z,13.97
2022-10-25T03:01:22.090Z,13.96
2022-10-25T03:02:22.029Z,13.99
2022-10-25T03:03:22.004Z,13.97
2022-10-25T03:04:22.005Z,14.02
2022-10-25T03:05:22.980Z,13.97
2022-10-25T03:06:21.998Z,14.00
2022-10-25T03:07:21.979Z,14.04
2022-10-25T03:08:21.969Z,13.95
2022-10-25T03:09:21.937Z,13.96
2022-10-25T03:10:21.953Z,14.02
2022-10-25T03:11:21.915Z,14.02
2022-10-25T03:12:21.924Z,13.96
2022-10-25T03:13:21.900Z,13.97
2022-10-25T03:14:21.880Z,13.88
2022-10-25T03:15:21.901Z,13.89
2022-10-25T03:16:21.870Z,13.96
2022-10-25T03:17:21.862Z,13.96
2022-10-25T03:18:21.848Z,13.87
2022-10-25T03:19:21.838Z,13.91
2022-10-25T03:20:21.856Z,13.99
2022-10-25T03:21:21.819Z,13.97
2022-10-25T03:22:21.811Z,13.99
2022-10-25T03:23:21.804Z,13.91
2022-10-25T03:24:21.788Z,13.87
2022-10-25T03:25:21.801Z,13.79
2022-10-25T03:26:21.769Z,13.82
2022-10-25T03:27:21.768Z,13.73
2022-10-25T03:28:21.760Z,13.63
2022-10-25T03:29:21.750Z,13.73
2022-10-25T03:30:21.751Z,13.59
2022-10-25T03:31:21.751Z,13.59
2022-10-25T03:32:21.717Z,13.52
2022-10-25T03:33:21.734Z,13.48
2022-10-25T03:34:21.694Z,13.59
2022-10-25T03:35:21.676Z,13.54
2022-10-25T03:36:21.736Z,13.51
2022-10-25T03:37:21.677Z,13.42
2022-10-25T03:38:21.656Z,13.48
2022-10-25T03:39:21.648Z,13.39
2022-10-25T03:40:21.620Z,13.42
2022-10-25T03:41:21.625Z,13.33
2022-10-25T03:42:21.620Z,13.39
2022-10-25T03:44:21.583Z,13.33
2022-10-25T03:45:21.586Z,13.45
2022-10-25T03:46:21.578Z,13.41
2022-10-25T03:47:21.577Z,13.44
2022-10-25T03:48:21.572Z,13.42
2022-10-25T03:49:21.536Z,13.48
2022-10-25T03:50:21.529Z,13.49
2022-10-25T03:51:21.534Z,13.44
2022-10-25T03:52:21.517Z,13.39
2022-10-25T03:53:21.524Z,13.45
2022-10-25T03:54:24.376Z,13.41
2022-10-25T03:55:22.492Z,13.45
2022-10-25T03:56:21.485Z,13.52
2022-10-25T03:57:21.468Z,13.46
2022-10-25T03:58:21.466Z,13.46
2022-10-25T03:59:21.476Z,13.59
2022-10-25T04:00:21.441Z,13.46
2022-10-25T04:01:21.561Z,13.59
2022-10-25T04:02:21.426Z,13.62
2022-10-25T04:03:21.418Z,13.59
2022-10-25T04:04:21.427Z,13.62
2022-10-25T04:05:21.395Z,13.52
2022-10-25T04:06:21.379Z,13.51
2022-10-25T04:07:22.380Z,13.57
2022-10-25T04:08:21.370Z,13.52
2022-10-25T04:09:21.368Z,13.48
2022-10-25T04:10:21.344Z,13.48
2022-10-25T04:11:21.322Z,13.55
2022-10-25T04:12:21.329Z,13.57
2022-10-25T04:13:21.313Z,13.59
2022-10-25T04:14:21.323Z,13.54
2022-10-25T04:15:21.297Z,13.57
2022-10-25T04:16:21.271Z,13.45
2022-10-25T04:17:21.302Z,13.45
2022-10-25T04:18:21.264Z,13.46
2022-10-25T04:19:21.253Z,13.42
2022-10-25T04:20:21.243Z,13.49
2022-10-25T04:21:21.214Z,13.55
2022-10-25T04:22:21.237Z,13.44
2022-10-25T04:23:21.206Z,13.51
2022-10-25T04:24:21.204Z,13.46
2022-10-25T04:25:21.187Z,13.51
2022-10-25T04:26:21.191Z,13.36
2022-10-25T04:27:21.169Z,13.42
2022-10-25T04:28:21.147Z,13.44
2022-10-25T04:29:21.159Z,13.32
2022-10-25T04:30:21.141Z,13.28
2022-10-25T04:31:21.147Z,13.25
2022-10-25T04:32:21.140Z,13.20
2022-10-25T04:33:21.103Z,13.15
2022-10-25T04:34:22.102Z,13.19
2022-10-25T04:35:21.085Z,13.15
2022-10-25T04:36:21.096Z,13.19
2022-10-25T04:37:21.086Z,13.15
2022-10-25T04:38:21.086Z,13.20
2022-10-25T04:39:21.044Z,13.20
2022-10-25T04:40:24.073Z,13.19
2022-10-25T04:41:22.032Z,13.22
2022-10-25T04:42:21.030Z,13.17
2022-10-25T04:43:21.028Z,13.14
2022-10-25T04:44:20.999Z,13.17
2022-10-25T04:45:21.004Z,13.28
2022-10-25T04:46:20.982Z,13.15
2022-10-25T04:47:20.979Z,13.29
2022-10-25T04:48:20.964Z,13.41
2022-10-25T04:49:20.956Z,13.30
2022-10-25T04:50:20.964Z,13.33
2022-10-25T04:51:20.931Z,13.46
2022-10-25T04:52:20.919Z,13.42
2022-10-25T04:53:20.907Z,13.39
2022-10-25T04:54:20.920Z,13.49
2022-10-25T04:55:20.881Z,13.45
2022-10-25T04:56:20.920Z,13.48
2022-10-25T04:57:20.877Z,13.39
2022-10-25T04:58:20.862Z,13.51
2022-10-25T04:59:20.876Z,13.49
2022-10-25T05:00:20.837Z,13.49
2022-10-25T05:01:20.911Z,13.54
2022-10-25T05:02:20.829Z,13.51
2022-10-25T05:03:20.857Z,13.62
2022-10-25T05:04:20.817Z,13.52
2022-10-25T05:05:20.798Z,13.64
2022-10-25T05:06:20.792Z,13.66
2022-10-25T05:07:20.802Z,13.66
2022-10-25T05:08:20.766Z,13.70
2022-10-25T05:09:20.762Z,13.60
2022-10-25T05:10:20.757Z,13.57
2022-10-25T05:11:20.764Z,13.63
2022-10-25T05:12:20.749Z,13.66
2022-10-25T05:13:20.722Z,13.62
2022-10-25T05:14:20.726Z,13.54
2022-10-25T05:15:20.699Z,13.44
2022-10-25T05:16:20.717Z,13.44
2022-10-25T05:17:20.715Z,13.38
2022-10-25T05:18:20.678Z,13.23
2022-10-25T05:19:20.666Z,13.33
2022-10-25T05:20:20.653Z,13.32
2022-10-25T05:21:20.716Z,13.17
2022-10-25T05:22:20.643Z,13.17
2022-10-25T05:23:20.617Z,13.17
2022-10-25T05:24:20.608Z,13.14
2022-10-25T05:25:20.618Z,13.14
2022-10-25T05:26:20.647Z,13.22
2022-10-25T05:27:20.614Z,13.25
2022-10-25T05:28:20.582Z,13.08
2022-10-25T05:29:20.566Z,13.17
2022-10-25T05:30:20.548Z,13.19
2022-10-25T05:31:20.562Z,13.12
2022-10-25T05:32:20.556Z,13.14
2022-10-25T05:33:20.530Z,13.10
2022-10-25T05:34:20.513Z,13.07
2022-10-25T05:35:20.510Z,13.04
2022-10-25T05:36:20.486Z,13.12
2022-10-25T05:37:20.501Z,13.04
2022-10-25T05:38:20.492Z,13.07
2022-10-25T05:39:20.479Z,13.15
2022-10-25T05:40:20.447Z,13.01
2022-10-25T05:41:20.445Z,13.12
2022-10-25T05:42:20.463Z,13.08
2022-10-25T05:43:20.428Z,13.11
2022-10-25T05:44:20.428Z,13.10
2022-10-25T05:45:20.402Z,13.08
2022-10-25T05:46:20.404Z,13.14
2022-10-25T05:47:20.402Z,13.14
2022-10-25T05:48:20.373Z,13.19
2022-10-25T05:49:20.456Z,13.20
2022-10-25T05:50:20.364Z,13.12
2022-10-25T05:51:33.141Z,13.12
2022-10-25T05:52:22.349Z,13.08
2022-10-25T05:53:20.333Z,13.15
2022-10-25T05:54:20.348Z,13.15
2022-10-25T05:55:20.322Z,13.20
2022-10-25T05:56:20.380Z,13.11
2022-10-25T05:57:20.297Z,13.08
2022-10-25T05:58:20.280Z,13.15
2022-10-25T05:59:20.273Z,13.19
2022-10-25T06:00:20.271Z,13.11
2022-10-25T06:01:20.396Z,13.17
2022-10-25T06:02:20.352Z,13.14
2022-10-25T06:03:20.240Z,13.05
2022-10-25T06:04:20.236Z,13.11
2022-10-25T06:05:20.220Z,13.01
2022-10-25T06:06:20.220Z,13.11
2022-10-25T06:07:20.218Z,13.00
2022-10-25T06:08:20.200Z,13.08
2022-10-25T06:09:20.177Z,13.14
2022-10-25T06:10:20.198Z,13.07
2022-10-25T06:11:20.160Z,13.05
2022-10-25T06:12:20.172Z,13.04
2022-10-25T06:13:20.137Z,13.08
2022-10-25T06:14:20.137Z,13.17
2022-10-25T06:15:20.145Z,13.03
2022-10-25T06:16:20.115Z,13.12
2022-10-25T06:17:20.134Z,13.03
2022-10-25T06:18:20.095Z,13.08
2022-10-25T06:19:20.074Z,13.17
2022-10-25T06:20:20.108Z,13.28
2022-10-25T06:21:20.049Z,13.17
2022-10-25T06:22:20.050Z,13.17
2022-10-25T06:23:20.048Z,13.28
2022-10-25T06:24:20.039Z,13.32
2022-10-25T06:25:20.035Z,13.30
2022-10-25T06:26:20.053Z,13.44
2022-10-25T06:27:20.006Z,13.49
2022-10-25T06:28:20.055Z,13.52
2022-10-25T06:29:19.985Z,13.51
2022-10-25T06:30:20.050Z,13.54
2022-10-25T06:31:19.966Z,13.55
2022-10-25T06:32:19.957Z,13.54
2022-10-25T06:33:21.526Z,13.62
2022-10-25T06:34:19.930Z,13.60
2022-10-25T06:35:19.931Z,13.69
2022-10-25T06:36:19.912Z,13.62
2022-10-25T06:37:19.928Z,13.75
2022-10-25T06:38:19.916Z,13.84
2022-10-25T06:39:19.897Z,13.81
2022-10-25T06:40:19.905Z,13.81
2022-10-25T06:41:19.872Z,13.79
2022-10-25T06:42:19.881Z,13.81
2022-10-25T06:43:19.850Z,13.88
2022-10-25T06:44:19.870Z,13.92
2022-10-25T06:45:19.840Z,13.84
2022-10-25T06:46:19.819Z,13.87
2022-10-25T06:47:19.817Z,13.79
2022-10-25T06:48:19.790Z,13.82
2022-10-25T06:49:19.807Z,13.89
2022-10-25T06:50:19.788Z,13.81
2022-10-25T06:51:19.776Z,13.81
2022-10-25T06:52:19.752Z,13.84
2022-10-25T06:53:19.751Z,13.81
2022-10-25T06:54:19.756Z,13.77
2022-10-25T06:55:19.726Z,13.84
2022-10-25T06:56:19.742Z,13.79
2022-10-25T06:57:19.720Z,13.75
2022-10-25T06:58:19.718Z,13.96
2022-10-25T06:59:19.672Z,14.51
2022-10-25T07:00:19.741Z,14.78
2022-10-25T07:01:19.753Z,15.01
2022-10-25T07:02:19.743Z,15.17
2022-10-25T07:03:19.655Z,15.44
2022-10-25T07:04:19.624Z,15.90
2022-10-25T07:05:19.655Z,16.56
2022-10-25T07:06:19.664Z,17.06
2022-10-25T07:07:19.599Z,17.40
2022-10-25T07:08:19.593Z,17.64
2022-10-25T07:09:19.594Z,17.46
2022-10-25T07:10:19.614Z,17.66
2022-10-25T07:11:19.570Z,18.26
2022-10-25T07:12:19.555Z,18.66
2022-10-25T07:13:19.545Z,19.13
2022-10-25T07:14:19.522Z,19.32
2022-10-25T07:16:20.586Z,19.63
2022-10-25T07:17:19.520Z,19.51
2022-10-25T07:18:19.506Z,18.85
2022-10-25T07:19:19.494Z,18.17
2022-10-25T07:20:19.472Z,17.87
2022-10-25T07:21:19.492Z,17.26
2022-10-25T07:22:19.462Z,17.15
2022-10-25T07:23:19.450Z,16.91
2022-10-25T07:24:19.450Z,16.71
2022-10-25T07:25:19.447Z,16.64
2022-10-25T07:26:19.459Z,16.24
2022-10-25T07:27:19.418Z,15.97
2022-10-25T07:28:19.408Z,15.83
2022-10-25T07:29:19.402Z,15.59
2022-10-25T07:30:19.409Z,15.32
2022-10-25T07:31:19.387Z,14.94
2022-10-25T07:32:19.417Z,14.92
2022-10-25T07:33:19.363Z,14.77
2022-10-25T07:34:19.347Z,14.81
2022-10-25T07:35:19.346Z,14.88
2022-10-25T07:36:19.334Z,14.73
2022-10-25T07:37:19.320Z,14.72
2022-10-25T07:38:19.315Z,14.73
2022-10-25T07:39:19.321Z,14.52
2022-10-25T07:40:19.289Z,14.52
2022-10-25T07:41:19.293Z,14.58
2022-10-25T07:42:19.290Z,14.72
2022-10-25T07:43:19.268Z,14.69
2022-10-25T07:44:23.968Z,14.72
2022-10-25T07:45:23.660Z,14.65
2022-10-25T07:46:21.225Z,14.65
2022-10-25T07:47:20.223Z,14.68
2022-10-25T07:48:19.233Z,14.65
2022-10-25T07:49:19.212Z,14.62
2022-10-25T07:50:19.220Z,14.68
2022-10-25T07:51:19.188Z,14.78
2022-10-25T07:52:19.174Z,14.88
2022-10-25T07:53:19.163Z,14.84
2022-10-25T07:54:19.178Z,15.03
2022-10-25T07:55:19.145Z,15.07
2022-10-25T07:56:22.410Z,15.06
2022-10-25T07:57:19.134Z,15.03
2022-10-25T07:58:19.130Z,15.06
2022-10-25T07:59:19.095Z,15.03
2022-10-25T08:00:19.091Z,15.06
2022-10-25T08:01:19.194Z,15.10
2022-10-25T08:02:21.836Z,15.10
2022-10-25T08:03:20.104Z,15.19
2022-10-25T08:04:20.080Z,15.20
2022-10-25T08:05:19.037Z,15.13
2022-10-25T08:06:19.051Z,15.02
2022-10-25T08:07:19.042Z,15.07
2022-10-25T08:08:19.027Z,15.17
2022-10-25T08:09:36.876Z,15.10
2022-10-25T08:10:21.064Z,15.06
2022-10-25T08:11:19.007Z,15.07
2022-10-25T08:12:22.407Z,14.98
2022-10-25T08:13:19.956Z,15.07
2022-10-25T08:14:19.056Z,15.10
2022-10-25T08:15:18.937Z,15.03
2022-10-25T08:16:18.929Z,15.11
2022-10-25T08:17:18.925Z,15.09
2022-10-25T08:18:18.935Z,14.96
2022-10-25T08:19:18.932Z,14.91
2022-10-25T08:20:18.890Z,14.98
2022-10-25T08:21:18.876Z,15.03
2022-10-25T08:22:18.892Z,15.11
2022-10-25T08:23:18.892Z,15.07
2022-10-25T08:25:19.942Z,15.13
2022-10-25T08:26:18.829Z,15.06
2022-10-25T08:27:18.844Z,15.06
2022-10-25T08:28:18.813Z,14.96
2022-10-25T08:29:18.808Z,14.91
2022-10-25T08:30:18.824Z,15.01
2022-10-25T08:31:18.792Z,14.99
2022-10-25T08:32:18.788Z,14.96
2022-10-25T08:33:18.776Z,14.96
2022-10-25T08:34:18.760Z,14.98
2022-10-25T08:35:18.730Z,15.01
2022-10-25T08:36:18.743Z,14.98
2022-10-25T08:37:18.710Z,15.01
2022-10-25T08:38:18.713Z,14.99
2022-10-25T08:39:18.686Z,15.01
2022-10-25T08:40:18.679Z,14.98
2022-10-25T08:41:18.677Z,15.01
2022-10-25T08:42:18.671Z,15.09
2022-10-25T08:43:18.679Z,15.10
2022-10-25T08:44:18.682Z,15.16
2022-10-25T08:45:18.632Z,15.20
2022-10-25T08:46:18.655Z,15.17
2022-10-25T08:47:18.624Z,15.21
2022-10-25T08:48:18.616Z,15.17
2022-10-25T08:49:18.594Z,15.28
2022-10-25T08:50:18.579Z,15.28
2022-10-25T08:51:18.602Z,15.35
2022-10-25T08:52:18.603Z,15.44
2022-10-25T08:53:18.544Z,15.34
2022-10-25T08:54:18.557Z,15.32
2022-10-25T08:55:18.549Z,15.35
2022-10-25T08:57:03.373Z,15.31
2022-10-25T08:57:19.498Z,15.32
2022-10-25T08:58:18.493Z,15.36
2022-10-25T08:59:18.469Z,15.44
2022-10-25T09:00:18.485Z,15.57
2022-10-25T09:01:18.533Z,15.56
2022-10-25T09:02:18.595Z,15.59
2022-10-25T09:03:19.433Z,15.60
2022-10-25T09:04:18.443Z,15.59
2022-10-25T09:05:18.435Z,15.59
2022-10-25T09:06:18.433Z,15.59
2022-10-25T09:07:18.400Z,15.62
2022-10-25T09:08:18.390Z,15.56
2022-10-25T09:09:18.387Z,15.60
2022-10-25T09:10:18.442Z,15.60
2022-10-25T09:11:18.382Z,15.60
2022-10-25T09:12:18.343Z,15.50
2022-10-25T09:13:18.337Z,15.60
2022-10-25T09:14:18.332Z,15.57
2022-10-25T09:15:18.326Z,15.65
2022-10-25T09:16:18.331Z,15.62
2022-10-25T09:17:18.294Z,15.71
2022-10-25T09:18:18.285Z,15.76
2022-10-25T09:19:18.303Z,15.76
2022-10-25T09:20:18.388Z,15.86
2022-10-25T09:21:22.406Z,15.82
2022-10-25T09:22:19.236Z,15.92
2022-10-25T09:23:18.288Z,16.01
2022-10-25T09:24:18.266Z,15.93
2022-10-25T09:25:18.206Z,15.96
2022-10-25T09:26:18.225Z,16.07
2022-10-25T09:27:18.196Z,16.25
2022-10-25T09:28:18.214Z,16.38
2022-10-25T09:29:18.179Z,16.27
2022-10-25T09:30:18.194Z,16.17
2022-10-25T09:31:18.158Z,16.05
2022-10-25T09:32:18.161Z,16.02
2022-10-25T09:33:18.172Z,16.00
2022-10-25T09:34:18.112Z,16.02
2022-10-25T09:35:18.124Z,16.00
2022-10-25T09:36:18.096Z,15.97
2022-10-25T09:37:18.120Z,15.90
2022-10-25T09:38:18.083Z,15.86
2022-10-25T09:39:18.073Z,15.83
2022-10-25T09:40:18.106Z,15.76
2022-10-25T09:41:18.053Z,15.76
2022-10-25T09:42:18.059Z,15.86
2022-10-25T09:43:18.037Z,15.90
2022-10-25T09:44:18.029Z,15.93
2022-10-25T09:45:18.012Z,15.94
2022-10-25T09:46:18.005Z,15.96
2022-10-25T09:47:17.990Z,15.84
2022-10-25T09:48:18.006Z,15.96
2022-10-25T09:49:17.945Z,15.96
2022-10-25T09:50:18.963Z,15.90
2022-10-25T09:51:17.957Z,15.96
2022-10-25T09:52:17.940Z,16.00
2022-10-25T09:53:20.348Z,15.84
2022-10-25T09:54:18.939Z,16.00
2022-10-25T09:55:17.922Z,16.07
2022-10-25T09:56:17.926Z,15.96
2022-10-25T09:57:17.907Z,16.11
2022-10-25T09:58:17.900Z,15.94
2022-10-25T09:59:17.873Z,15.94
2022-10-25T10:00:17.877Z,16.01
2022-10-25T10:01:17.994Z,15.96
2022-10-25T10:02:17.920Z,15.94
2022-10-25T10:03:17.839Z,16.07
2022-10-25T10:04:17.821Z,15.94
2022-10-25T10:05:17.834Z,15.97
2022-10-25T10:06:17.825Z,16.11
2022-10-25T10:07:17.798Z,16.09
2022-10-25T10:08:17.826Z,16.14
2022-10-25T10:09:17.792Z,16.09
2022-10-25T10:10:17.762Z,16.02
2022-10-25T10:11:17.766Z,16.17
2022-10-25T10:12:17.768Z,16.09
2022-10-25T10:13:17.789Z,16.15
2022-10-25T10:14:17.720Z,16.23
2022-10-25T10:15:17.722Z,16.25
2022-10-25T10:16:17.710Z,16.17
2022-10-25T10:17:17.696Z,16.35
2022-10-25T10:18:17.812Z,16.38
2022-10-25T10:19:17.693Z,16.35
2022-10-25T10:20:17.666Z,16.23
2022-10-25T10:21:17.659Z,16.39
2022-10-25T10:22:17.664Z,16.41
2022-10-25T10:23:17.640Z,16.33
2022-10-25T10:24:17.634Z,16.33
2022-10-25T10:25:17.640Z,16.31
2022-10-25T10:26:17.631Z,16.42
2022-10-25T10:27:17.605Z,16.58
2022-10-25T10:28:17.599Z,16.78
2022-10-25T10:29:17.959Z,16.71
2022-10-25T10:30:18.590Z,16.71
2022-10-25T10:31:17.562Z,16.79
2022-10-25T10:32:17.570Z,16.79
2022-10-25T10:33:17.540Z,16.79
2022-10-25T10:34:17.570Z,16.79
2022-10-25T10:35:17.513Z,16.83
2022-10-25T10:36:17.516Z,16.97
2022-10-25T10:37:17.564Z,16.88
2022-10-25T10:38:17.488Z,16.83
2022-10-25T10:39:17.477Z,16.93
2022-10-25T10:40:17.464Z,16.94
2022-10-25T10:41:17.473Z,16.93
2022-10-25T10:42:17.565Z,16.91
2022-10-25T10:43:17.446Z,16.86
2022-10-25T10:44:17.509Z,16.94
2022-10-25T10:45:17.434Z,16.88
2022-10-25T10:46:17.390Z,16.83
2022-10-25T10:47:17.434Z,16.89
2022-10-25T10:48:17.415Z,16.82
2022-10-25T10:49:17.397Z,16.78
2022-10-25T10:50:17.417Z,16.88
2022-10-25T10:51:38.909Z,16.88
2022-10-25T10:52:19.417Z,16.81
2022-10-25T10:53:17.391Z,16.81
2022-10-25T10:54:17.438Z,16.81
2022-10-25T10:55:17.348Z,16.81
2022-10-25T10:56:17.359Z,16.64
2022-10-25T10:57:17.310Z,16.68
2022-10-25T10:58:17.302Z,16.53
2022-10-25T10:59:17.298Z,16.57
2022-10-25T11:00:17.306Z,16.49
2022-10-25T11:01:17.399Z,16.38
2022-10-25T11:02:17.450Z,16.34
2022-10-25T11:03:17.256Z,16.41
2022-10-25T11:04:17.262Z,16.34
2022-10-25T11:05:17.240Z,16.41
2022-10-25T11:06:17.256Z,16.45
2022-10-25T11:07:17.219Z,16.49
2022-10-25T11:08:17.198Z,16.42
2022-10-25T11:09:17.208Z,16.53
2022-10-25T11:10:17.198Z,16.64
2022-10-25T11:11:17.196Z,16.68
2022-10-25T11:12:17.189Z,16.52
2022-10-25T11:13:17.148Z,16.48
2022-10-25T11:14:17.158Z,16.42
2022-10-25T11:15:17.153Z,16.39
2022-10-25T11:16:17.223Z,16.45
2022-10-25T11:17:17.127Z,16.43
2022-10-25T11:18:17.102Z,16.50
2022-10-25T11:19:17.111Z,16.34
2022-10-25T11:20:17.104Z,16.39
2022-10-25T11:21:17.109Z,16.38
2022-10-25T11:22:17.062Z,16.64
2022-10-25T11:23:17.063Z,16.82
2022-10-25T11:24:17.053Z,16.79
2022-10-25T11:25:17.044Z,16.85
2022-10-25T11:26:17.036Z,16.89
2022-10-25T11:27:17.042Z,16.82
2022-10-25T11:28:17.016Z,16.81
2022-10-25T11:29:16.996Z,16.76
2022-10-25T11:30:17.007Z,16.79
2022-10-25T11:31:16.988Z,16.67
2022-10-25T11:32:17.040Z,16.76
2022-10-25T11:33:16.979Z,16.79
2022-10-25T11:34:16.950Z,16.78
2022-10-25T11:35:16.938Z,16.82
2022-10-25T11:36:16.941Z,16.82
2022-10-25T11:37:16.907Z,16.82
2022-10-25T11:38:16.904Z,16.75
2022-10-25T11:39:16.912Z,16.83
2022-10-25T11:40:16.896Z,16.79
2022-10-25T11:41:16.909Z,16.91
2022-10-25T11:42:16.888Z,16.94
2022-10-25T11:43:16.867Z,17.06
2022-10-25T11:44:16.858Z,17.00
2022-10-25T11:45:16.855Z,17.11
2022-10-25T11:46:16.862Z,17.15
2022-10-25T11:47:16.829Z,17.37
2022-10-25T11:48:16.885Z,17.49
2022-10-25T11:49:16.810Z,17.33
2022-10-25T11:50:16.816Z,17.23
2022-10-25T11:51:16.764Z,17.21
2022-10-25T11:52:17.765Z,17.26
2022-10-25T11:53:16.779Z,17.22
2022-10-25T11:54:16.749Z,17.23
2022-10-25T11:55:16.749Z,17.18
2022-10-25T11:56:16.749Z,17.30
2022-10-25T11:57:16.729Z,17.19
2022-10-25T11:58:16.728Z,17.16
2022-10-25T11:59:17.052Z,17.14
2022-10-25T12:00:16.770Z,17.04
2022-10-25T12:01:16.832Z,17.15
2022-10-25T12:02:16.717Z,17.12
2022-10-25T12:03:16.655Z,17.18
2022-10-25T12:04:16.739Z,17.23
2022-10-25T12:05:16.651Z,17.16
2022-10-25T12:06:16.660Z,17.23
2022-10-25T12:07:16.628Z,17.25
2022-10-25T12:08:16.629Z,17.21
2022-10-25T12:09:16.604Z,17.14
2022-10-25T12:10:16.614Z,17.12
2022-10-25T12:11:18.839Z,17.06
2022-10-25T12:12:16.576Z,17.06
2022-10-25T12:13:16.562Z,17.04
2022-10-25T12:14:16.580Z,17.03
2022-10-25T12:15:16.540Z,17.11
2022-10-25T12:16:16.551Z,17.04
2022-10-25T12:17:16.515Z,17.14
2022-10-25T12:18:16.531Z,17.08
2022-10-25T12:19:17.492Z,17.16
2022-10-25T12:20:16.567Z,17.22
2022-10-25T12:21:16.480Z,17.22
2022-10-25T12:22:16.467Z,17.37
2022-10-25T12:23:16.489Z,17.22
2022-10-25T12:24:16.455Z,17.25
2022-10-25T12:25:16.444Z,17.33
2022-10-25T12:26:16.426Z,17.25
2022-10-25T12:27:16.436Z,17.28
2022-10-25T12:28:17.431Z,17.37
2022-10-25T12:29:16.387Z,17.41
2022-10-25T12:30:16.471Z,17.43
2022-10-25T12:31:16.372Z,17.52
2022-10-25T12:32:16.367Z,17.43
2022-10-25T12:33:16.348Z,17.41
2022-10-25T12:34:16.367Z,17.48
2022-10-25T12:35:16.377Z,17.37
2022-10-25T12:36:16.404Z,17.41
2022-10-25T12:37:16.333Z,17.36
2022-10-25T12:38:16.345Z,17.43
2022-10-25T12:39:16.298Z,17.43
2022-10-25T12:40:16.351Z,17.22
2022-10-25T12:41:16.278Z,17.37
2022-10-25T12:42:16.262Z,17.43
2022-10-25T12:43:16.289Z,17.43
2022-10-25T12:44:16.247Z,17.37
2022-10-25T12:45:16.241Z,17.36
2022-10-25T12:46:16.231Z,17.25
2022-10-25T12:47:16.222Z,17.26
2022-10-25T12:48:16.241Z,17.25
2022-10-25T12:49:16.209Z,17.25
2022-10-25T12:51:18.114Z,17.21
2022-10-25T12:52:16.239Z,17.18
2022-10-25T12:53:16.186Z,17.25
2022-10-25T12:54:16.142Z,17.28
2022-10-25T12:55:16.134Z,17.34
2022-10-25T12:56:16.130Z,17.26
2022-10-25T12:57:16.112Z,17.22
2022-10-25T12:58:16.127Z,17.15
2022-10-25T12:59:16.122Z,17.21